Map

Track Data

SID SEASON NUMBER BASIN SUBBASIN NAME ISO_TIME NATURE LAT LON WMO_WIND WMO_PRES WMO_AGENCY TRACK_TYPE DIST2LAND LANDFALL IFLAG USA_AGENCY USA_ATCF_ID USA_LAT USA_LON USA_RECORD USA_STATUS USA_WIND USA_PRES USA_SSHS USA_R34_NE USA_R34_SE USA_R34_SW USA_R34_NW USA_R50_NE USA_R50_SE USA_R50_SW USA_R50_NW USA_R64_NE USA_R64_SE USA_R64_SW USA_R64_NW USA_POCI USA_ROCI USA_RMW USA_EYE TOKYO_LAT TOKYO_LON TOKYO_GRADE TOKYO_WIND TOKYO_PRES TOKYO_R50_DIR TOKYO_R50_LONG TOKYO_R50_SHORT TOKYO_R30_DIR TOKYO_R30_LONG TOKYO_R30_SHORT TOKYO_LAND CMA_LAT CMA_LON CMA_CAT CMA_WIND CMA_PRES HKO_LAT HKO_LON HKO_CAT HKO_WIND HKO_PRES NEWDELHI_LAT NEWDELHI_LON NEWDELHI_GRADE NEWDELHI_WIND NEWDELHI_PRES NEWDELHI_CI NEWDELHI_DP NEWDELHI_POCI REUNION_LAT REUNION_LON REUNION_TYPE REUNION_WIND REUNION_PRES REUNION_TNUM REUNION_CI REUNION_RMW REUNION_R34_NE REUNION_R34_SE REUNION_R34_SW REUNION_R34_NW REUNION_R50_NE REUNION_R50_SE REUNION_R50_SW REUNION_R50_NW REUNION_R64_NE REUNION_R64_SE REUNION_R64_SW REUNION_R64_NW BOM_LAT BOM_LON BOM_TYPE BOM_WIND BOM_PRES BOM_TNUM BOM_CI BOM_RMW BOM_R34_NE BOM_R34_SE BOM_R34_SW BOM_R34_NW BOM_R50_NE BOM_R50_SE BOM_R50_SW BOM_R50_NW BOM_R64_NE BOM_R64_SE BOM_R64_SW BOM_R64_NW BOM_ROCI BOM_POCI BOM_EYE BOM_POS_METHOD BOM_PRES_METHOD NADI_LAT NADI_LON NADI_CAT NADI_WIND NADI_PRES WELLINGTON_LAT WELLINGTON_LON WELLINGTON_WIND WELLINGTON_PRES DS824_LAT DS824_LON DS824_STAGE DS824_WIND DS824_PRES TD9636_LAT TD9636_LON TD9636_STAGE TD9636_WIND TD9636_PRES TD9635_LAT TD9635_LON TD9635_WIND TD9635_PRES TD9635_ROCI NEUMANN_LAT NEUMANN_LON NEUMANN_CLASS NEUMANN_WIND NEUMANN_PRES MLC_LAT MLC_LON MLC_CLASS MLC_WIND MLC_PRES USA_GUST BOM_GUST BOM_GUST_PER REUNION_GUST REUNION_GUST_PER USA_SEAHGT USA_SEARAD_NE USA_SEARAD_SE USA_SEARAD_SW USA_SEARAD_NW STORM_SPEED STORM_DIR
1999298N12099 1999 93 NI BB NOT_NAMED 1999-10-25 00:00:00 NR 11.5000 99.2000 main 0 0 O_____________ jtwc_io IO051999 11.5000 99.2000 25 -1 14 289
1999298N12099 1999 93 NI BB NOT_NAMED 1999-10-25 03:00:00 NR 11.7253 98.5301 main 15 10 P_____________ IO051999 11.7253 98.5301 25 -1 12 294
1999298N12099 1999 93 NI BB NOT_NAMED 1999-10-25 06:00:00 NR 12.0000 98.0500 25 1004 newdelhi main 44 44 O___O_________ jtwc_io IO051999 12.0000 97.9000 25 -1 12.0000 98.5000 D 25 1004 1.50000 2 10 311
1999298N12099 1999 93 NI BB NOT_NAMED 1999-10-25 09:00:00 NR 12.3999 97.7317 25 1004 newdelhi main 97 97 P___O_________ IO051999 12.3499 97.3476 25 -1 12.5000 98.5000 D 25 1004 1.50000 2 9 313
1999298N12099 1999 93 NI BB NOT_NAMED 1999-10-25 12:00:00 NR 12.6143 97.3714 25 1002 newdelhi main 130 130 O___O_________ jtwc_io IO051999 12.7000 96.9000 25 -1 12.5000 98.0000 D 25 1002 1.50000 4 5 304
1999298N12099 1999 93 NI BB NOT_NAMED 1999-10-25 15:00:00 NR 12.6944 97.2921 main 132 132 P___P_________ IO051999 12.9573 96.5847 25 -1 12.4314 97.9996 D 25 1002 4 3 318
1999298N12099 1999 93 NI BB NOT_NAMED 1999-10-25 18:00:00 NR 12.8500 97.1500 25 1002 newdelhi main 125 125 O___O_________ jtwc_io IO051999 13.2000 96.3000 25 -1 12.5000 98.0000 D 25 1002 1.50000 4 9 313
1999298N12099 1999 93 NI BB NOT_NAMED 1999-10-25 21:00:00 NR 13.2671 96.6523 main 155 155 P___P_________ IO051999 13.5001 95.9001 30 -1 13.0342 97.4045 D 27 1002 4 14 306
1999298N12099 1999 93 NI BB NOT_NAMED 1999-10-26 00:00:00 NR 13.6500 96.0000 30 1002 newdelhi main 224 212 O___O_________ jtwc_io IO051999 13.8000 95.5000 35 0 13.5000 96.5000 DD 30 1002 2.00000 4 14 292
1999298N12099 1999 93 NI BB NOT_NAMED 1999-10-26 03:00:00 NR 13.7711 95.3573 35 1002 newdelhi main 212 201 P___O_________ IO051999 14.0423 95.2147 35 0 13.5000 95.5000 CS 35 1002 2.00000 6 11 284
1999298N12099 1999 93 NI BB NOT_NAMED 1999-10-26 06:00:00 NR 13.9000 94.9500 35 1002 newdelhi main 201 165 O___O_________ jtwc_io IO051999 14.3000 94.9000 35 0 13.5000 95.0000 CS 35 1002 2.50000 6 10 302
1999298N12099 1999 93 NI BB NOT_NAMED 1999-10-26 09:00:00 NR 14.3213 94.4576 35 1002 newdelhi main 165 127 P___O_________ IO051999 14.6427 94.4152 40 0 14.0000 94.5000 CS 35 1002 2.50000 6 13 311
1999298N12099 1999 93 NI BB NOT_NAMED 1999-10-26 12:00:00 NR 14.7500 93.9500 45 998 newdelhi main 119 116 O___O_________ jtwc_io IO051999 15.0000 93.9000 45 0 14.5000 94.0000 CS 45 998 3.00000 10 13 312
1999298N12099 1999 93 NI BB NOT_NAMED 1999-10-26 15:00:00 NR 15.1612 93.4924 45 998 newdelhi main 116 116 P___O_________ IO051999 15.3223 93.4849 47 0 15.0000 93.5000 CS 45 998 3.00000 10 8 311
1999298N12099 1999 93 NI BB NOT_NAMED 1999-10-26 18:00:00 NR 15.3000 93.3000 45 998 newdelhi main 124 124 O___O_________ jtwc_io IO051999 15.6000 93.1000 50 0 15.0000 93.5000 CS 45 998 3.00000 10 7 292
1999298N12099 1999 93 NI BB NOT_NAMED 1999-10-26 21:00:00 NR 15.4075 92.8499 45 998 newdelhi main 164 156 P___O_________ IO051999 15.8149 92.6998 57 0 15.0000 93.0000 CS 45 998 3.00000 10 8 306
1999298N12099 1999 93 NI BB NOT_NAMED 1999-10-27 00:00:00 NR 15.7500 92.6500 45 998 newdelhi main 162 163 O___O_________ jtwc_io IO051999 16.0000 92.3000 65 1 15.5000 93.0000 CS 45 998 3.00000 10 11 309
1999298N12099 1999 93 NI BB NOT_NAMED 1999-10-27 03:00:00 NR 16.1038 91.9425 55 992 newdelhi main 246 246 P___O_________ IO051999 16.2075 91.8850 70 1 16.0000 92.0000 SCS 55 992 3.50000 16 13 302
1999298N12099 1999 93 NI BB NOT_NAMED 1999-10-27 06:00:00 NR 16.4500 91.5000 55 992 newdelhi main 293 293 O___O_________ jtwc_io IO051999 16.4000 91.5000 75 1 16.5000 91.5000 SCS 55 992 3.50000 16 9 298
1999298N12099 1999 93 NI BB NOT_NAMED 1999-10-27 09:00:00 NR 16.5287 91.0962 55 992 newdelhi main 335 335 P___O_________ IO051999 16.5574 91.1924 82 1 16.5000 91.0000 SCS 55 992 3.50000 16 9 298
1999298N12099 1999 93 NI BB NOT_NAMED 1999-10-27 12:00:00 NR 16.8500 90.7000 55 992 newdelhi main 386 384 O___O_________ jtwc_io IO051999 16.7000 90.9000 90 2 17.0000 90.5000 SCS 55 992 3.50000 16 7 306
1999298N12099 1999 93 NI BB NOT_NAMED 1999-10-27 15:00:00 NR 16.9136 90.5436 65 986 newdelhi main 407 405 P___O_________ IO051999 16.8273 90.5872 92 2 17.0000 90.5000 VSCS 65 986 4.00000 20 4 294
1999298N12099 1999 93 NI BB NOT_NAMED 1999-10-27 18:00:00 NR 17.0000 90.3500 65 986 newdelhi main 414 414 O___O_________ jtwc_io IO051999 17.0000 90.2000 95 2 17.0000 90.5000 VSCS 65 986 4.00000 20 7 289
1999298N12099 1999 93 NI BB NOT_NAMED 1999-10-27 21:00:00 NR 17.1426 89.8289 65 986 newdelhi main 463 437 P___O_________ IO051999 17.2852 89.6578 97 3 17.0000 90.0000 VSCS 65 986 4.00000 20 9 306
1999298N12099 1999 93 NI BB NOT_NAMED 1999-10-28 00:00:00 NR 17.5500 89.5500 65 986 newdelhi main 429 352 O___O_________ jtwc_io IO051999 17.6000 89.1000 100 3 17.5000 90.0000 VSCS 65 986 4.00000 20 12 310
1999298N12099 1999 93 NI BB NOT_NAMED 1999-10-28 03:00:00 NR 17.9287 88.8312 77 978 newdelhi main 344 307 P___O_________ IO051999 17.8573 88.6623 107 3 18.0000 89.0000 VSCS 77 978 4.50000 30 12 295
1999298N12099 1999 93 NI BB NOT_NAMED 1999-10-28 06:00:00 NR 18.0500 88.4000 90 968 newdelhi main 298 245 O___O_________ jtwc_io IO051999 18.1000 88.3000 115 4 18.0000 88.5000 VSCS 90 968 5.00000 40 9 302
1999298N12099 1999 93 NI BB NOT_NAMED 1999-10-28 09:00:00 NR 18.4250 87.9887 102 956 newdelhi main 245 230 P___O_________ IO051999 18.3499 87.9774 125 4 18.5000 88.0000 VSCS 102 956 5.50000 52 7 314
1999298N12099 1999 93 NI BB NOT_NAMED 1999-10-28 12:00:00 NR 18.5500 87.8500 115 940 newdelhi main 222 168 O___O_________ jtwc_io IO051999 18.6000 87.7000 135 4 18.5000 88.0000 VSCS 115 940 6.00000 66 7 315
1999298N12099 1999 93 NI BB NOT_NAMED 1999-10-28 15:00:00 NR 18.9250 87.4712 127 928 newdelhi main 168 115 P___O_________ IO051999 18.8499 87.4424 137 5 19.0000 87.5000 SUCS 127 928 6.50000 80 10 312
1999298N12099 1999 93 NI BB NOT_NAMED 1999-10-28 18:00:00 NR 19.2000 87.1000 140 912 newdelhi main 115 107 O___O_________ jtwc_io IO051999 19.1000 87.2000 140 5 19.3000 87.0000 SUCS 140 912 7.00000 98 6 317
1999298N12099 1999 93 NI BB NOT_NAMED 1999-10-28 21:00:00 NR 19.3287 87.0712 140 912 newdelhi main 107 68 P___O_________ IO051999 19.3575 86.9425 140 5 19.3000 87.2000 SUCS 140 912 7.00000 98 5 329
1999298N12099 1999 93 NI BB NOT_NAMED 1999-10-29 00:00:00 NR 19.6000 86.8500 140 912 newdelhi main 68 30 O___O_________ jtwc_io IO051999 19.6000 86.7000 140 5 19.6000 87.0000 SUCS 140 912 7.00000 98 7 319
1999298N12099 1999 93 NI BB NOT_NAMED 1999-10-29 03:00:00 NR 19.8537 86.5925 140 912 newdelhi main 23 0 P___O_________ IO051999 19.8075 86.4849 137 5 19.9000 86.7000 SUCS 140 912 7.00000 98 9 315
1999298N12099 1999 93 NI BB NOT_NAMED 1999-10-29 06:00:00 NR 20.2500 86.1500 140 912 newdelhi main 0 0 O___O_________ jtwc_io IO051999 20.0000 86.3000 135 4 20.5000 86.0000 SUCS 140 912 7.00000 98 8 315
1999298N12099 1999 93 NI BB NOT_NAMED 1999-10-29 09:00:00 NR 20.4187 85.9881 main 0 0 P___P_________ IO051999 20.2150 86.1200 125 4 20.6224 85.8562 SUCS 2 324
1999298N12099 1999 93 NI BB NOT_NAMED 1999-10-29 12:00:00 NR 20.4500 86.0000 newdelhi main 0 0 O___O_________ jtwc_io IO051999 20.4000 86.0000 115 4 20.5000 86.0000 VSCS 0.00000 1 6
1999298N12099 1999 93 NI BB NOT_NAMED 1999-10-29 15:00:00 NR 20.5150 85.9925 main 0 0 P___P_________ IO051999 20.5300 85.9849 107 3 20.5000 86.0000 VSCS 1 0
1999298N12099 1999 93 NI BB NOT_NAMED 1999-10-29 18:00:00 NR 20.5500 86.0000 newdelhi main 0 0 O___O_________ jtwc_io IO051999 20.6000 86.0000 100 3 20.5000 86.0000 SCS 0.00000 0 0
1999298N12099 1999 93 NI BB NOT_NAMED 1999-10-29 21:00:00 NR 20.5613 85.9788 main 0 0 P___P_________ IO051999 20.6225 85.9575 90 2 20.5000 86.0000 SCS 0 270
1999298N12099 1999 93 NI BB NOT_NAMED 1999-10-30 00:00:00 NR 20.5500 85.9500 newdelhi main 0 0 O___O_________ jtwc_io IO051999 20.6000 85.9000 80 1 20.5000 86.0000 SCS 0.00000 1 245
1999298N12099 1999 93 NI BB NOT_NAMED 1999-10-30 03:00:00 NR 20.5325 85.9212 newdelhi main 0 0 P___O_________ IO051999 20.5650 85.8425 67 1 20.5000 86.0000 CS 0.00000 1 223
1999298N12099 1999 93 NI BB NOT_NAMED 1999-10-30 06:00:00 NR 20.5000 85.9000 newdelhi main 0 0 O___O_________ jtwc_io IO051999 20.5000 85.8000 55 0 20.5000 86.0000 CS 0.00000 1 0
1999298N12099 1999 93 NI BB NOT_NAMED 1999-10-30 09:00:00 NR 20.4500 85.8925 main 0 0 P___P_________ IO051999 20.4000 85.7850 50 0 20.5000 86.0000 CS 1 0
1999298N12099 1999 93 NI BB NOT_NAMED 1999-10-30 12:00:00 NR 20.4000 85.9000 newdelhi main 0 0 O___O_________ jtwc_io IO051999 20.3000 85.8000 45 0 20.5000 86.0000 CS 0.00000 1 154
1999298N12099 1999 93 NI BB NOT_NAMED 1999-10-30 15:00:00 NR 20.3788 85.9250 main 0 0 P___P_________ IO051999 20.2575 85.8500 45 0 20.5000 86.0000 CS 1 137
1999298N12099 1999 93 NI BB NOT_NAMED 1999-10-30 18:00:00 NR 20.3500 85.9500 newdelhi main 0 0 O___O_________ jtwc_io IO051999 20.2000 85.9000 45 0 20.5000 86.0000 DD 0.00000 2 199
1999298N12099 1999 93 NI BB NOT_NAMED 1999-10-30 21:00:00 NR 20.2073 85.8598 main 0 0 P___P_________ IO051999 20.0650 85.9075 42 0 20.3970 85.7963 DD 3 182
1999298N12099 1999 93 NI BB NOT_NAMED 1999-10-31 00:00:00 NR 20.1000 85.9333 newdelhi main 0 0 O___O_________ jtwc_io IO051999 19.9000 85.9000 40 0 20.5000 86.0000 DD 0.00000 3 129
1999298N12099 1999 93 NI BB NOT_NAMED 1999-10-31 03:00:00 NR 20.0060 86.1260 newdelhi main 0 0 P___O_________ IO051999 19.7575 85.9075 40 0 21.0000 87.0000 D 0.00000 5 185
1999298N12099 1999 93 NI BB NOT_NAMED 1999-10-31 06:00:00 NR 19.6000 85.9000 main 24 24 O_____________ jtwc_io IO051999 19.6000 85.9000 40 0 7 202
1999298N12099 1999 93 NI BB NOT_NAMED 1999-10-31 09:00:00 NR 19.3925 85.8650 main 45 45 P_____________ IO051999 19.3925 85.8650 37 0 4 193
1999298N12099 1999 93 NI BB NOT_NAMED 1999-10-31 12:00:00 NR 19.2000 85.8000 main 61 61 O_____________ jtwc_io IO051999 19.2000 85.8000 35 0 4 206
1999298N12099 1999 93 NI BB NOT_NAMED 1999-10-31 15:00:00 NR 19.0775 85.7000 main 64 64 P_____________ IO051999 19.0775 85.7000 35 0 3 224
1999298N12099 1999 93 NI BB NOT_NAMED 1999-10-31 18:00:00 NR 19.0000 85.6000 main 69 69 O_____________ jtwc_io IO051999 19.0000 85.6000 35 0 2 230
1999298N12099 1999 93 NI BB NOT_NAMED 1999-10-31 21:00:00 NR 18.9575 85.5500 main 69 64 P_____________ IO051999 18.9575 85.5500 32 -1 1 223
1999298N12099 1999 93 NI BB NOT_NAMED 1999-11-01 00:00:00 NR 18.9000 85.5000 main 74 74 O_____________ jtwc_io IO051999 18.9000 85.5000 30 -1 2 220
1999298N12099 1999 93 NI BB NOT_NAMED 1999-11-01 03:00:00 NR 18.7950 85.4075 main 76 71 P_____________ IO051999 18.7950 85.4075 27 -1 4 212
1999298N12099 1999 93 NI BB NOT_NAMED 1999-11-01 06:00:00 NR 18.6000 85.3000 main 77 71 O_____________ jtwc_io IO051999 18.6000 85.3000 25 -1 5 202
1999298N12099 1999 93 NI BB NOT_NAMED 1999-11-01 09:00:00 NR 18.2950 85.2000 main 84 84 P_____________ IO051999 18.2950 85.2000 25 -1 7 195
1999298N12099 1999 93 NI BB NOT_NAMED 1999-11-01 12:00:00 NR 17.9000 85.1000 main 107 107 O_____________ jtwc_io IO051999 17.9000 85.1000 25 -1 9 193
1999298N12099 1999 93 NI BB NOT_NAMED 1999-11-01 15:00:00 NR 17.4650 84.9925 main 130 130 P_____________ IO051999 17.4650 84.9925 25 -1 9 192
1999298N12099 1999 93 NI BB NOT_NAMED 1999-11-01 18:00:00 NR 17.0000 84.9000 main 168 168 O_____________ jtwc_io IO051999 17.0000 84.9000 25 -1 10 188
1999298N12099 1999 93 NI BB NOT_NAMED 1999-11-01 21:00:00 NR 16.4975 84.8425 main 208 208 P_____________ IO051999 16.4975 84.8425 25 -1 9 186
1999298N12099 1999 93 NI BB NOT_NAMED 1999-11-02 00:00:00 NR 16.1000 84.8000 main 239 239 O_____________ jtwc_io IO051999 16.1000 84.8000 25 -1 6 189
1999298N12099 1999 93 NI BB NOT_NAMED 1999-11-02 03:00:00 NR 15.9400 84.7575 main 255 248 P_____________ IO051999 15.9400 84.7575 22 -1 2 207
1999298N12099 1999 93 NI BB NOT_NAMED 1999-11-02 06:00:00 NR 15.9000 84.7000 main 248 241 O_____________ jtwc_io IO051999 15.9000 84.7000 20 -1 2 233
1999298N12099 1999 93 NI BB NOT_NAMED 1999-11-02 09:00:00 NR 15.8425 84.6225 main 250 244 P_____________ IO051999 15.8425 84.6225 17 -1 2 243
1999298N12099 1999 93 NI BB NOT_NAMED 1999-11-02 12:00:00 NR 15.8000 84.5000 main 244 236 O_____________ jtwc_io IO051999 15.8000 84.5000 15 -1 3 250
1999298N12099 1999 93 NI BB NOT_NAMED 1999-11-02 15:00:00 NR 15.7350 84.3149 main 236 217 P_____________ IO051999 15.7350 84.3149 15 -1 4 255
1999298N12099 1999 93 NI BB NOT_NAMED 1999-11-02 18:00:00 NR 15.7000 84.1000 main 217 198 O_____________ jtwc_io IO051999 15.7000 84.1000 15 -1 4 269
1999298N12099 1999 93 NI BB NOT_NAMED 1999-11-02 21:00:00 NR 15.7275 83.9000 main 198 174 P_____________ IO051999 15.7275 83.9000 15 -1 4 285
1999298N12099 1999 93 NI BB NOT_NAMED 1999-11-03 00:00:00 NR 15.8000 83.7000 main 174 150 O_____________ jtwc_io IO051999 15.8000 83.7000 15 -1 4 293
1999298N12099 1999 93 NI BB NOT_NAMED 1999-11-03 03:00:00 NR 15.8950 83.5000 main 150 126 P_____________ IO051999 15.8950 83.5000 15 -1 4 297
1999298N12099 1999 93 NI BB NOT_NAMED 1999-11-03 06:00:00 NR 16.0000 83.3000 main 126 O_____________ jtwc_io IO051999 16.0000 83.3000 15 -1 4 298

About IBTrACS Database

This database is a web-friendly format of International Best Track Archive for Climate Stewardship (IBTrACS), a global best track data archive curated by NOAA dating back to 1842.

Updated: 2021-10-27